This is the latest recevied weather packets stored in our database for station/object DL1DH-17. If no packets are shown the sender has not sent any weather packets the latest 10 day(s).
| Time | Temp. | Humidity | Pressure | Rain* | Wind** | Luminosity | Snow |
|---|---|---|---|---|---|---|---|
| 1778082792 | 16.67° C | 60% | 966.5 hPa | - | - | - | - |
| 1778081952 | 17.22° C | 58% | 966.5 hPa | - | - | - | - |
| 1778081112 | 18.33° C | 54% | 966.5 hPa | - | - | - | - |
| 1778080275 | 18.33° C | 50% | 966.4 hPa | - | - | - | - |
| 1778079433 | 18.33° C | 50% | 966.5 hPa | - | - | - | - |
| 1778078594 | 18.89° C | 49% | 966.5 hPa | - | - | - | - |
| 1778077752 | 20° C | 47% | 966.3 hPa | - | - | - | - |
| 1778076912 | 20° C | 48% | 966.3 hPa | - | - | - | - |
| 1778076071 | 18.89° C | 48% | 966.4 hPa | - | - | - | - |
| 1778075231 | 20° C | 48% | 966.3 hPa | - | - | - | - |
| 1778074391 | 20° C | 49% | 966.4 hPa | - | - | - | - |
| 1778073555 | 20° C | 49% | 966.3 hPa | - | - | - | - |
| 1778072712 | 20.56° C | 50% | 966.4 hPa | - | - | - | - |
| 1778071873 | 20° C | 51% | 966.3 hPa | - | - | - | - |
| 1778071035 | 19.44° C | 51% | 966.3 hPa | - | - | - | - |
| 1778070195 | 20° C | 52% | 966.4 hPa | - | - | - | - |
| 1778069350 | 18.89° C | 55% | 966.6 hPa | - | - | - | - |
| 1778068510 | 18.89° C | 55% | 966.7 hPa | - | - | - | - |
| 1778067675 | 18.89° C | 55% | 966.6 hPa | - | - | - | - |
| 1778066830 | 18.33° C | 57% | 966.6 hPa | - | - | - | - |
| 1778065991 | 17.78° C | 59% | 966.8 hPa | - | - | - | - |
| 1778065151 | 17.22° C | 62% | 966.8 hPa | - | - | - | - |
| 1778064310 | 17.22° C | 63% | 967 hPa | - | - | - | - |
| 1778063470 | 17.78° C | 62% | 966.9 hPa | - | - | - | - |
| 1778062630 | 17.78° C | 64% | 966.9 hPa | - | - | - | - |
* Rain since midnight (hover to see other rain measurements)
** Current wind speed in m/s (hover to see current wind gust speed)